Time;durP1;ratioP1;P1;durP2;ratioP2;P2;SDS_P1;SDS_P2;PMS_P1;PMS_P2;Temp;Humidity;BMP_temperature;BMP_pressure;BME280_temperature;BME280_humidity;BME280_pressure;Samples;Min_cycle;Max_cycle;Signal;HPM_P1;HPM_P2
2021/05/08 00:01:22;;;;;;;10.43;1.88;;;15.70;96.70;;;;;;5013874;28;20537;-73
2021/05/08 00:03:50;;;;;;;5.72;1.48;;;15.60;96.70;;;;;;5018688;28;20107;-72
2021/05/08 00:06:19;;;;;;;6.47;1.80;;;15.60;96.70;;;;;;5018241;28;20048;-73
2021/05/08 00:08:46;;;;;;;8.05;2.35;;;15.50;96.70;;;;;;5017605;28;20376;-73
2021/05/08 00:11:14;;;;;;;6.57;1.88;;;15.40;96.70;;;;;;5001733;28;20079;-73
2021/05/08 00:13:42;;;;;;;8.15;2.00;;;15.40;96.70;;;;;;5020043;28;20407;-73
2021/05/08 00:16:12;;;;;;;6.75;1.67;;;15.30;96.70;;;;;;5018854;28;20042;-72
2021/05/08 00:18:40;;;;;;;6.20;1.95;;;15.30;96.70;;;;;;5015594;28;20128;-73
2021/05/08 00:21:08;;;;;;;7.05;1.92;;;15.30;96.70;;;;;;5021085;28;20519;-72
2021/05/08 00:23:36;;;;;;;6.57;1.60;;;15.30;96.70;;;;;;5021017;28;20138;-73
2021/05/08 00:26:04;;;;;;;9.13;2.03;;;15.30;96.70;;;;;;5020646;28;20064;-73
2021/05/08 00:28:32;;;;;;;7.32;1.58;;;15.30;96.70;;;;;;4998228;28;20100;-72
2021/05/08 00:31:00;;;;;;;4.72;1.45;;;15.20;96.70;;;;;;5015239;28;20058;-72
2021/05/08 00:33:29;;;;;;;5.40;1.58;;;15.20;96.70;;;;;;5021608;28;20037;-73
2021/05/08 00:35:57;;;;;;;6.80;1.52;;;15.20;96.70;;;;;;5014296;28;20636;-73
2021/05/08 00:38:25;;;;;;;8.57;2.72;;;15.20;96.70;;;;;;5007060;28;20041;-73
2021/05/08 00:41:14;;;;;;;6.07;1.75;;;15.20;96.70;;;;;;5021207;28;20049;-73
2021/05/08 00:43:42;;;;;;;7.80;1.40;;;15.20;96.70;;;;;;4944303;28;20485;-72
2021/05/08 00:46:11;;;;;;;7.47;1.90;;;15.20;96.70;;;;;;4943492;28;20522;-72
2021/05/08 00:48:40;;;;;;;8.30;2.03;;;15.20;96.70;;;;;;4959757;28;20707;-73
2021/05/08 00:51:08;;;;;;;11.05;2.05;;;15.20;96.70;;;;;;4940185;28;20255;-73
2021/05/08 00:53:37;;;;;;;7.03;1.83;;;15.10;96.70;;;;;;4960225;28;20530;-73
2021/05/08 00:56:08;;;;;;;9.43;1.95;;;15.00;96.70;;;;;;4945331;28;20074;-72
2021/05/08 00:58:42;;;;;;;8.82;2.03;;;15.00;96.70;;;;;;4948645;28;20039;-72
2021/05/08 01:01:23;;;;;;;6.10;2.15;;;15.00;96.70;;;;;;4944698;28;20116;-73
2021/05/08 01:04:09;;;;;;;10.00;2.58;;;14.90;96.70;;;;;;4965779;28;20059;-73
2021/05/08 01:06:49;;;;;;;7.05;2.50;;;14.90;96.70;;;;;;4931220;28;20109;-73
2021/05/08 01:09:23;;;;;;;6.15;1.80;;;14.90;96.70;;;;;;5024070;28;20273;-73
2021/05/08 01:11:54;;;;;;;8.70;2.55;;;14.90;96.70;;;;;;5021375;28;20045;-72
2021/05/08 01:14:26;;;;;;;10.07;2.13;;;14.90;96.70;;;;;;5022929;28;20476;-73
2021/05/08 01:16:55;;;;;;;9.10;1.90;;;14.90;96.70;;;;;;5020001;28;20073;-73
2021/05/08 01:19:29;;;;;;;7.70;2.08;;;14.80;96.70;;;;;;5023650;28;20107;-73
2021/05/08 01:21:59;;;;;;;7.45;2.15;;;14.80;96.70;;;;;;5021103;28;20041;-72
2021/05/08 01:24:30;;;;;;;7.18;1.77;;;14.80;96.70;;;;;;5021286;28;20098;-72
2021/05/08 01:26:59;;;;;;;10.05;2.30;;;14.80;96.70;;;;;;5021877;28;20052;-73
2021/05/08 01:29:27;;;;;;;8.25;1.95;;;14.80;96.70;;;;;;5023336;28;20045;-73
2021/05/08 01:31:55;;;;;;;8.05;1.73;;;14.80;96.70;;;;;;5019011;28;20475;-72
2021/05/08 01:34:23;;;;;;;6.72;1.98;;;14.80;96.70;;;;;;5023179;28;20072;-72
2021/05/08 01:36:53;;;;;;;8.27;2.17;;;14.80;96.70;;;;;;5025452;28;20053;-72
2021/05/08 01:39:26;;;;;;;9.13;2.00;;;14.80;96.70;;;;;;5021295;28;20399;-72
2021/05/08 01:41:56;;;;;;;6.95;1.95;;;14.70;96.70;;;;;;5020821;28;20132;-72
2021/05/08 01:44:25;;;;;;;7.60;2.15;;;14.60;96.70;;;;;;5022511;28;20033;-73
2021/05/08 01:46:54;;;;;;;6.70;2.03;;;14.60;96.70;;;;;;5040175;28;20140;-72
2021/05/08 01:49:26;;;;;;;5.07;1.67;;;14.60;96.70;;;;;;5020019;28;20038;-72
2021/05/08 01:51:55;;;;;;;7.05;1.67;;;14.60;96.70;;;;;;5020173;28;20160;-72
2021/05/08 01:54:25;;;;;;;7.68;1.85;;;14.60;96.70;;;;;;5028977;28;20381;-73
2021/05/08 01:56:54;;;;;;;5.97;1.80;;;14.70;96.70;;;;;;5020890;28;20082;-72
2021/05/08 01:59:27;;;;;;;7.50;2.00;;;14.70;96.70;;;;;;5026400;28;20036;-73
2021/05/08 02:01:57;;;;;;;7.03;1.95;;;14.70;96.70;;;;;;5028578;28;20037;-73
2021/05/08 02:04:26;;;;;;;7.90;2.67;;;14.70;96.70;;;;;;5040143;28;20041;-73
2021/05/08 02:06:59;;;;;;;5.25;2.45;;;14.60;96.70;;;;;;5008604;28;20865;-72
2021/05/08 02:09:28;;;;;;;9.43;1.88;;;14.50;96.70;;;;;;5021776;28;20619;-72
2021/05/08 02:12:00;;;;;;;5.78;1.55;;;14.50;96.70;;;;;;5026201;28;20037;-73
2021/05/08 02:14:29;;;;;;;11.27;2.35;;;14.50;96.70;;;;;;5040603;28;20050;-72
2021/05/08 02:16:58;;;;;;;5.18;1.70;;;14.50;96.70;;;;;;5024233;28;20045;-73
2021/05/08 02:19:28;;;;;;;7.50;1.75;;;14.50;96.70;;;;;;5022482;28;20514;-72
2021/05/08 02:21:58;;;;;;;6.80;1.67;;;14.30;96.70;;;;;;5038320;28;20045;-73
2021/05/08 02:24:26;;;;;;;6.85;1.70;;;14.30;96.70;;;;;;5022686;28;20108;-72
2021/05/08 02:27:04;;;;;;;10.60;1.83;;;14.20;96.70;;;;;;5039565;28;20051;-73
2021/05/08 02:29:32;;;;;;;6.72;2.30;;;14.20;96.70;;;;;;5033333;28;20045;-73
2021/05/08 02:32:01;;;;;;;7.88;1.88;;;14.30;96.70;;;;;;5021481;28;20029;-73
2021/05/08 02:34:30;;;;;;;8.63;1.63;;;14.20;96.70;;;;;;5039095;28;20099;-73
2021/05/08 02:37:01;;;;;;;5.85;1.48;;;14.20;96.70;;;;;;5024747;28;20399;-72
2021/05/08 02:39:30;;;;;;;6.57;2.25;;;14.20;96.70;;;;;;5043089;28;20132;-72
2021/05/08 02:41:59;;;;;;;6.25;1.42;;;14.20;96.70;;;;;;5039229;28;20055;-72
2021/05/08 02:44:30;;;;;;;5.50;1.50;;;14.20;96.70;;;;;;5021630;28;20053;-72
2021/05/08 02:47:00;;;;;;;5.95;1.60;;;14.20;96.70;;;;;;5034658;28;20335;-73
2021/05/08 02:49:28;;;;;;;7.40;1.70;;;14.20;96.70;;;;;;5019305;28;20163;-73
2021/05/08 02:51:56;;;;;;;5.85;1.30;;;14.20;96.70;;;;;;5020336;28;20057;-73
2021/05/08 02:54:24;;;;;;;5.82;1.55;;;14.10;96.70;;;;;;5027792;28;20061;-73
2021/05/08 02:56:52;;;;;;;5.07;1.48;;;14.00;96.70;;;;;;5039938;28;20277;-73
2021/05/08 02:59:22;;;;;;;5.32;1.60;;;13.90;96.70;;;;;;5020653;28;20559;-72
2021/05/08 03:01:52;;;;;;;5.10;1.10;;;13.90;96.70;;;;;;5037305;28;20051;-72
2021/05/08 03:04:19;;;;;;;7.30;2.00;;;13.90;96.70;;;;;;5040823;28;20029;-72
2021/05/08 03:06:47;;;;;;;5.28;1.60;;;13.90;96.70;;;;;;5022998;28;20049;-73
2021/05/08 03:09:49;;;;;;;7.18;2.05;;;13.90;96.70;;;;;;5040090;28;20147;-72
2021/05/08 03:12:17;;;;;;;4.47;1.40;;;13.90;96.70;;;;;;5021577;28;20045;-73
2021/05/08 03:14:46;;;;;;;5.25;1.67;;;14.00;96.70;;;;;;5038155;28;20513;-72
2021/05/08 03:17:16;;;;;;;5.07;1.08;;;13.90;96.70;;;;;;5021392;28;20045;-73
2021/05/08 03:20:23;;;;;;;6.68;1.23;;;13.90;96.70;;;;;;5007941;28;20507;-73
2021/05/08 03:22:54;;;;;;;6.63;1.27;;;13.90;96.70;;;;;;5037318;28;20033;-72
2021/05/08 03:25:23;;;;;;;5.47;1.77;;;13.80;96.70;;;;;;5020798;28;20041;-72
2021/05/08 03:27:52;;;;;;;4.13;1.70;;;13.80;96.70;;;;;;5039595;28;20108;-72
2021/05/08 03:30:25;;;;;;;6.20;1.80;;;13.80;96.70;;;;;;5021758;28;20098;-73
2021/05/08 03:32:58;;;;;;;4.40;1.60;;;13.90;96.70;;;;;;5021912;28;20045;-73
2021/05/08 03:36:15;;;;;;;7.65;1.52;;;13.90;96.70;;;;;;5038127;28;20062;-72
2021/05/08 03:38:43;;;;;;;3.92;1.08;;;13.90;96.70;;;;;;5038950;28;20053;-73
2021/05/08 03:41:35;;;;;;;8.00;1.58;;;13.90;96.70;;;;;;5035594;28;20068;-72
2021/05/08 03:44:03;;;;;;;4.68;1.23;;;13.90;96.70;;;;;;5036060;28;20037;-72
2021/05/08 03:46:50;;;;;;;4.45;1.00;;;13.90;96.70;;;;;;5031268;28;20041;-73
2021/05/08 03:49:19;;;;;;;5.63;1.67;;;13.90;96.70;;;;;;5034626;28;20038;-73
2021/05/08 03:52:08;;;;;;;3.58;1.23;;;13.80;96.70;;;;;;5042396;28;20275;-73
2021/05/08 03:54:37;;;;;;;7.80;1.73;;;13.70;96.70;;;;;;5036054;28;20060;-72
2021/05/08 03:57:05;;;;;;;5.47;1.42;;;13.70;96.70;;;;;;5040905;28;20115;-73
2021/05/08 04:03:21;;;;;;;6.15;1.73;;;13.70;96.70;;;;;;5021463;28;20487;-72
2021/05/08 04:06:15;;;;;;;6.55;2.13;;;13.70;96.70;;;;;;5005312;28;20041;-73
2021/05/08 04:08:42;;;;;;;7.60;2.67;;;13.70;96.70;;;;;;5022988;28;20196;-72
2021/05/08 04:11:11;;;;;;;9.95;3.03;;;13.70;96.70;;;;;;5020498;28;20136;-73
2021/05/08 04:13:39;;;;;;;5.90;2.85;;;13.70;96.70;;;;;;5034675;28;20331;-72
2021/05/08 04:16:09;;;;;;;6.63;2.90;;;13.70;96.70;;;;;;5007439;28;20048;-72
2021/05/08 04:18:39;;;;;;;9.40;2.67;;;13.70;96.70;;;;;;5043178;28;20044;-72
2021/05/08 04:21:07;;;;;;;5.78;2.92;;;13.70;96.70;;;;;;5041353;28;20142;-73
2021/05/08 04:23:38;;;;;;;4.93;1.77;;;13.60;96.70;;;;;;5023715;28;20088;-73
2021/05/08 04:26:07;;;;;;;8.27;2.05;;;13.60;96.70;;;;;;5026042;28;20086;-72
2021/05/08 04:28:35;;;;;;;7.32;1.77;;;13.60;96.70;;;;;;5042673;28;20088;-73
2021/05/08 04:31:04;;;;;;;6.45;1.73;;;13.60;96.70;;;;;;5043684;28;20048;-73
2021/05/08 04:33:35;;;;;;;5.82;2.00;;;13.60;96.70;;;;;;5025284;28;20049;-72
2021/05/08 04:36:04;;;;;;;4.38;1.90;;;13.60;96.70;;;;;;5045604;28;20044;-72
2021/05/08 04:38:32;;;;;;;8.75;1.83;;;13.50;96.70;;;;;;5042642;28;20041;-72
2021/05/08 04:41:00;;;;;;;11.18;2.55;;;13.50;96.70;;;;;;5019663;28;20048;-73
2021/05/08 04:43:28;;;;;;;8.93;3.33;;;13.50;96.70;;;;;;5027963;28;20164;-73
2021/05/08 04:45:55;;;;;;;7.50;2.65;;;13.50;96.70;;;;;;5020108;28;20483;-72
2021/05/08 04:48:23;;;;;;;7.60;3.22;;;13.60;96.70;;;;;;5025662;28;20693;-72
2021/05/08 04:50:53;;;;;;;9.70;4.10;;;13.60;96.70;;;;;;5025087;28;20033;-72
2021/05/08 04:53:20;;;;;;;14.23;5.70;;;13.60;96.70;;;;;;5024334;28;20593;-72
2021/05/08 04:55:48;;;;;;;15.20;5.15;;;13.60;96.70;;;;;;5046704;28;20044;-72
2021/05/08 04:58:18;;;;;;;14.75;4.95;;;13.60;96.70;;;;;;5028888;28;20118;-73
2021/05/08 05:00:45;;;;;;;11.95;4.65;;;13.60;96.70;;;;;;5024313;28;20581;-72
2021/05/08 05:03:13;;;;;;;12.02;5.20;;;13.80;96.70;;;;;;5024213;28;20045;-73
2021/05/08 05:05:40;;;;;;;13.75;5.90;;;13.90;96.70;;;;;;5023271;28;20636;-73
2021/05/08 05:08:08;;;;;;;16.10;5.18;;;13.80;96.70;;;;;;5024600;28;20490;-73
2021/05/08 05:10:36;;;;;;;11.43;4.32;;;13.90;96.70;;;;;;5028217;28;20410;-73
2021/05/08 05:13:03;;;;;;;11.93;4.25;;;13.90;96.70;;;;;;5026543;28;20045;-73
2021/05/08 05:15:32;;;;;;;10.93;4.35;;;14.00;96.70;;;;;;5022422;28;20135;-72
2021/05/08 05:17:59;;;;;;;10.30;3.95;;;13.90;96.70;;;;;;5042376;28;20044;-72
2021/05/08 05:20:27;;;;;;;17.00;4.53;;;13.90;96.70;;;;;;5029671;28;20041;-72
2021/05/08 05:22:55;;;;;;;12.73;4.03;;;14.00;96.70;;;;;;5023602;28;20126;-72
2021/05/08 05:25:23;;;;;;;9.75;3.85;;;14.00;96.70;;;;;;5042970;28;20045;-74
2021/05/08 05:27:50;;;;;;;6.82;2.80;;;14.10;96.70;;;;;;5040572;28;20040;-73
2021/05/08 05:30:20;;;;;;;9.93;2.78;;;14.10;96.70;;;;;;5024933;28;20047;-72
2021/05/08 05:32:49;;;;;;;14.82;4.68;;;14.10;96.70;;;;;;5026083;28;20494;-73
2021/05/08 05:35:16;;;;;;;11.93;4.63;;;14.20;96.70;;;;;;5038418;28;20053;-74
2021/05/08 05:37:44;;;;;;;14.98;6.38;;;14.20;96.70;;;;;;5043803;28;20048;-73
2021/05/08 05:40:12;;;;;;;15.88;5.85;;;14.30;96.70;;;;;;5039636;28;20132;-74
2021/05/08 05:42:40;;;;;;;11.52;4.50;;;14.30;96.70;;;;;;5012949;28;20051;-73
2021/05/08 05:45:09;;;;;;;11.82;5.35;;;14.30;96.70;;;;;;5038061;28;20037;-75
2021/05/08 05:47:36;;;;;;;12.75;5.28;;;14.40;96.70;;;;;;5025876;28;20048;-73
2021/05/08 05:50:05;;;;;;;8.40;3.78;;;14.40;96.70;;;;;;5025640;28;20040;-72
2021/05/08 05:52:33;;;;;;;8.88;3.63;;;14.40;96.70;;;;;;5021416;28;20080;-73
2021/05/08 05:55:00;;;;;;;9.52;2.85;;;14.40;96.70;;;;;;5038575;28;20145;-73
2021/05/08 05:57:28;;;;;;;7.93;2.33;;;14.40;96.70;;;;;;5026487;28;20041;-73
2021/05/08 05:59:56;;;;;;;9.57;2.75;;;14.50;96.70;;;;;;5037701;28;20051;-73
2021/05/08 06:02:24;;;;;;;4.95;1.88;;;14.60;96.70;;;;;;5040441;28;20552;-73
2021/05/08 06:04:52;;;;;;;7.10;2.22;;;14.70;96.70;;;;;;5021384;28;20454;-73
2021/05/08 06:07:20;;;;;;;6.40;1.85;;;14.70;96.70;;;;;;5026055;28;20399;-74
2021/05/08 06:09:49;;;;;;;7.18;2.08;;;15.00;96.70;;;;;;5041663;28;20041;-74
2021/05/08 06:12:16;;;;;;;6.97;2.40;;;15.10;96.70;;;;;;5044304;28;20514;-73
2021/05/08 06:14:44;;;;;;;6.57;2.13;;;15.30;96.70;;;;;;5037997;28;20450;-73
2021/05/08 06:17:11;;;;;;;8.75;2.20;;;15.40;96.70;;;;;;5035006;28;20503;-73
2021/05/08 06:19:39;;;;;;;9.73;3.35;;;15.60;96.70;;;;;;5025550;28;20037;-73
2021/05/08 06:22:06;;;;;;;11.50;3.17;;;15.60;96.70;;;;;;5005413;28;20115;-73
2021/05/08 06:24:35;;;;;;;9.63;2.92;;;15.60;96.70;;;;;;5027732;28;20045;-73
2021/05/08 06:27:03;;;;;;;9.60;3.33;;;15.70;96.70;;;;;;5029364;28;20511;-73
2021/05/08 06:29:31;;;;;;;7.60;3.35;;;15.70;96.70;;;;;;5012612;28;20036;-73
2021/05/08 06:31:58;;;;;;;9.02;3.90;;;15.90;96.70;;;;;;5021336;28;20130;-73
2021/05/08 06:34:26;;;;;;;9.48;3.65;;;16.00;96.70;;;;;;5037405;28;20048;-73
2021/05/08 06:36:53;;;;;;;9.60;3.65;;;16.10;96.70;;;;;;5017795;28;20052;-73
2021/05/08 06:39:22;;;;;;;8.82;3.13;;;16.10;96.70;;;;;;5042127;28;20484;-73
2021/05/08 06:41:51;;;;;;;7.93;3.45;;;16.20;96.70;;;;;;5039854;28;20039;-73
2021/05/08 06:44:18;;;;;;;6.85;3.13;;;16.30;96.70;;;;;;5023536;28;20511;-73
2021/05/08 06:46:46;;;;;;;6.70;3.00;;;16.40;96.70;;;;;;5041781;28;20061;-73
2021/05/08 06:49:14;;;;;;;6.97;2.45;;;16.40;96.70;;;;;;5035422;28;20049;-73
2021/05/08 06:51:41;;;;;;;7.22;2.75;;;16.50;96.70;;;;;;5039847;28;20037;-74
2021/05/08 06:54:09;;;;;;;8.65;2.28;;;16.60;96.70;;;;;;5039225;28;20045;-74
2021/05/08 06:56:36;;;;;;;10.27;2.60;;;16.70;96.70;;;;;;5024339;28;20498;-74
2021/05/08 06:59:05;;;;;;;10.93;2.78;;;16.70;96.70;;;;;;5038669;28;20151;-74
2021/05/08 07:01:32;;;;;;;7.90;2.63;;;16.80;96.70;;;;;;5022013;28;20516;-73
2021/05/08 07:04:00;;;;;;;11.70;2.58;;;16.90;96.70;;;;;;5023427;28;20059;-74
2021/05/08 07:06:29;;;;;;;8.15;2.53;;;16.90;96.70;;;;;;5022584;28;20048;-74
2021/05/08 07:08:57;;;;;;;6.82;2.10;;;17.00;96.70;;;;;;5006038;28;20044;-74
2021/05/08 07:11:25;;;;;;;6.97;2.00;;;17.10;96.70;;;;;;5039702;28;20120;-74
2021/05/08 07:13:53;;;;;;;7.32;2.40;;;17.20;96.70;;;;;;5016781;28;20044;-74
2021/05/08 07:16:21;;;;;;;8.75;2.30;;;17.20;96.70;;;;;;5034274;28;20082;-74
2021/05/08 07:18:49;;;;;;;10.57;2.53;;;17.30;96.70;;;;;;5023328;28;20056;-74
2021/05/08 07:21:16;;;;;;;6.90;2.00;;;17.30;96.70;;;;;;5019486;28;20391;-74
2021/05/08 07:23:44;;;;;;;8.55;2.30;;;17.40;96.70;;;;;;5022024;28;20578;-74
2021/05/08 07:26:12;;;;;;;7.88;2.20;;;17.40;96.70;;;;;;5039043;28;20037;-74
2021/05/08 07:28:39;;;;;;;10.73;2.08;;;17.40;96.70;;;;;;5021232;28;20061;-74
2021/05/08 07:31:07;;;;;;;8.20;2.58;;;17.40;96.70;;;;;;5023586;28;20040;-75
2021/05/08 07:33:35;;;;;;;9.82;2.47;;;17.50;96.70;;;;;;5025428;28;20041;-74
2021/05/08 07:36:03;;;;;;;8.55;2.45;;;17.50;96.70;;;;;;5036362;28;20124;-75
2021/05/08 07:38:31;;;;;;;10.80;2.50;;;17.60;96.70;;;;;;5004831;28;20044;-74
2021/05/08 07:40:58;;;;;;;13.15;2.47;;;17.60;96.70;;;;;;5034182;28;20102;-74
2021/05/08 07:43:26;;;;;;;8.13;2.30;;;17.60;96.70;;;;;;5035804;28;20468;-74
2021/05/08 07:45:54;;;;;;;7.63;2.10;;;17.70;96.70;;;;;;5036643;28;20045;-75
2021/05/08 07:48:22;;;;;;;9.02;2.08;;;17.80;96.70;;;;;;5025471;28;20048;-75
2021/05/08 07:50:50;;;;;;;8.00;2.00;;;17.90;96.70;;;;;;5034467;28;20047;-74
2021/05/08 07:53:18;;;;;;;7.90;1.95;;;18.00;96.70;;;;;;5028114;28;20760;-75
2021/05/08 07:55:45;;;;;;;9.68;2.03;;;18.10;96.70;;;;;;5022782;28;20056;-74
2021/05/08 07:58:13;;;;;;;6.00;1.80;;;18.20;96.70;;;;;;5038592;28;20068;-75
2021/05/08 08:00:41;;;;;;;10.43;2.65;;;18.20;96.70;;;;;;5038764;28;20037;-74
2021/05/08 08:03:09;;;;;;;9.10;2.00;;;18.30;96.70;;;;;;5038329;28;20041;-74
2021/05/08 08:05:56;;;;;;;9.35;2.47;;;18.40;96.70;;;;;;5008970;28;20095;-74
2021/05/08 08:08:28;;;;;;;12.52;2.25;;;18.50;96.70;;;;;;5036907;28;20063;-75
2021/05/08 08:10:56;;;;;;;8.13;1.95;;;18.60;96.70;;;;;;5023550;28;20048;-74
2021/05/08 08:13:24;;;;;;;10.15;2.28;;;18.70;96.70;;;;;;5019780;28;20041;-74
2021/05/08 08:15:51;;;;;;;7.45;1.80;;;18.70;96.70;;;;;;5007778;28;20057;-74
2021/05/08 08:18:19;;;;;;;8.93;3.00;;;18.80;96.70;;;;;;5001854;28;20166;-74
2021/05/08 08:20:46;;;;;;;6.10;1.63;;;18.90;96.70;;;;;;5036229;28;20033;-74
2021/05/08 08:23:15;;;;;;;7.57;1.77;;;19.00;96.70;;;;;;5020293;28;20038;-74
2021/05/08 08:25:48;;;;;;;6.85;2.08;;;19.00;96.70;;;;;;5039950;28;20095;-74
2021/05/08 08:28:15;;;;;;;7.78;2.05;;;19.00;96.70;;;;;;5033408;28;20044;-74
2021/05/08 08:30:43;;;;;;;7.00;2.00;;;19.10;96.70;;;;;;5023667;28;20049;-75
2021/05/08 08:33:10;;;;;;;9.55;2.13;;;19.30;96.70;;;;;;5036306;28;20060;-75
2021/05/08 08:35:38;;;;;;;7.93;2.30;;;19.50;96.70;;;;;;5023501;28;20604;-75
2021/05/08 08:38:06;;;;;;;9.98;2.15;;;19.60;96.70;;;;;;5024943;28;20041;-74
2021/05/08 08:40:34;;;;;;;8.65;2.25;;;19.50;96.70;;;;;;5026297;28;20421;-74
2021/05/08 08:43:02;;;;;;;7.53;1.95;;;19.50;96.70;;;;;;5034061;28;20096;-74
2021/05/08 08:45:33;;;;;;;8.30;2.53;;;19.60;96.70;;;;;;5023404;28;20071;-74
2021/05/08 08:48:01;;;;;;;5.85;2.20;;;19.70;96.70;;;;;;5021751;28;20044;-74
2021/05/08 08:50:31;;;;;;;8.25;2.80;;;19.80;96.70;;;;;;5037634;28;20142;-75
2021/05/08 08:53:00;;;;;;;9.10;2.60;;;19.90;96.70;;;;;;5036744;28;20075;-74
2021/05/08 08:55:27;;;;;;;6.88;2.30;;;20.00;96.70;;;;;;5039168;28;20049;-74
2021/05/08 08:57:57;;;;;;;8.07;1.70;;;20.00;96.70;;;;;;5021783;28;20119;-76
2021/05/08 09:00:24;;;;;;;8.18;1.17;;;19.80;96.70;;;;;;5010403;28;20037;-75
2021/05/08 09:02:51;;;;;;;6.20;1.92;;;19.90;96.60;;;;;;5021457;28;20041;-75
2021/05/08 09:05:21;;;;;;;5.72;1.85;;;20.00;96.70;;;;;;5042973;28;20045;-77
2021/05/08 09:07:50;;;;;;;6.63;1.80;;;20.20;96.70;;;;;;5042486;28;20037;-75
2021/05/08 09:10:23;;;;;;;6.03;1.63;;;20.30;95.70;;;;;;5026455;28;20045;-74
2021/05/08 09:12:51;;;;;;;9.90;2.28;;;20.40;95.80;;;;;;5034995;28;20045;-75
2021/05/08 09:15:31;;;;;;;5.05;1.90;;;20.60;94.90;;;;;;5005139;28;20091;-74
2021/05/08 09:18:00;;;;;;;6.75;2.10;;;20.60;95.50;;;;;;5008385;28;20033;-74
2021/05/08 09:20:45;;;;;;;7.47;1.90;;;20.60;95.20;;;;;;5029545;28;20662;-74
2021/05/08 09:23:22;;;;;;;5.60;1.98;;;20.60;96.00;;;;;;5029085;28;20045;-74
2021/05/08 09:26:01;;;;;;;6.45;1.70;;;20.70;94.80;;;;;;5041632;28;20045;-74
2021/05/08 09:28:30;;;;;;;4.40;1.83;;;20.80;94.40;;;;;;5039375;28;20037;-74
2021/05/08 09:30:59;;;;;;;8.77;2.03;;;20.90;94.00;;;;;;5041954;28;20510;-73
2021/05/08 09:33:28;;;;;;;7.05;1.73;;;21.10;93.80;;;;;;5040097;28;20041;-73
2021/05/08 09:35:59;;;;;;;6.55;2.28;;;21.20;93.40;;;;;;5039046;28;20128;-74
2021/05/08 09:38:32;;;;;;;4.70;2.22;;;21.30;92.90;;;;;;5012404;28;20044;-74
2021/05/08 09:41:00;;;;;;;6.03;1.65;;;21.40;93.10;;;;;;5025343;28;20461;-73
2021/05/08 09:43:27;;;;;;;7.20;1.35;;;21.50;91.80;;;;;;5013405;28;20072;-73
2021/05/08 09:45:56;;;;;;;4.45;1.50;;;21.60;91.30;;;;;;5023779;28;20044;-74
2021/05/08 09:48:28;;;;;;;4.78;1.70;;;21.70;90.70;;;;;;5028181;28;20052;-73
2021/05/08 09:51:25;;;;;;;11.23;1.98;;;21.90;90.70;;;;;;5027329;28;20040;-74
2021/05/08 09:53:54;;;;;;;4.65;1.58;;;21.80;90.20;;;;;;5039523;28;20057;-73
2021/05/08 09:56:35;;;;;;;6.47;1.92;;;22.00;89.50;;;;;;5013180;28;20044;-74
2021/05/08 09:59:23;;;;;;;6.88;1.60;;;21.70;87.90;;;;;;5006019;28;20056;-74
2021/05/08 10:02:09;;;;;;;5.57;1.35;;;21.60;90.10;;;;;;5019736;28;20068;-76
2021/05/08 10:04:44;;;;;;;5.97;1.15;;;21.60;89.90;;;;;;5023221;28;20060;-74
2021/05/08 10:07:14;;;;;;;4.78;1.23;;;21.90;88.70;;;;;;5041972;28;20033;-75
2021/05/08 10:09:43;;;;;;;7.80;1.48;;;22.00;87.20;;;;;;5022135;28;20045;-77
2021/05/08 10:12:14;;;;;;;8.73;1.20;;;22.20;87.50;;;;;;5019454;28;20052;-75
2021/05/08 10:14:44;;;;;;;8.10;1.40;;;22.30;86.80;;;;;;5039705;28;20521;-75
2021/05/08 10:17:18;;;;;;;5.95;1.17;;;22.20;86.00;;;;;;5025474;28;20050;-74
2021/05/08 10:19:48;;;;;;;4.95;1.25;;;22.20;85.60;;;;;;5038726;28;20430;-74
2021/05/08 10:22:16;;;;;;;4.82;1.27;;;22.40;84.50;;;;;;5042369;28;20467;-74
2021/05/08 10:24:45;;;;;;;7.20;1.63;;;22.60;85.20;;;;;;5023255;28;20216;-74
2021/05/08 10:27:14;;;;;;;7.90;1.58;;;22.70;86.10;;;;;;5007871;28;20047;-74
2021/05/08 10:29:44;;;;;;;8.35;1.73;;;22.60;85.60;;;;;;5043612;28;20036;-74
2021/05/08 10:32:14;;;;;;;7.53;2.20;;;22.30;86.00;;;;;;5029390;28;20064;-75
2021/05/08 10:34:51;;;;;;;6.72;1.27;;;22.00;86.80;;;;;;5043454;28;20498;-74
2021/05/08 10:37:20;;;;;;;4.73;1.93;;;21.80;85.80;;;;;;5040319;28;20390;-74
2021/05/08 10:39:55;;;;;;;6.25;1.80;;;21.90;86.50;;;;;;5026810;28;20132;-74
2021/05/08 10:42:37;;;;;;;9.13;1.58;;;22.10;85.90;;;;;;5004515;28;20046;-74
2021/05/08 10:45:27;;;;;;;5.35;1.40;;;22.10;85.00;;;;;;5040368;28;20120;-74
2021/05/08 10:48:10;;;;;;;6.82;1.50;;;22.40;85.60;;;;;;5025492;28;20068;-74
2021/05/08 10:50:54;;;;;;;3.65;1.35;;;22.80;84.00;;;;;;5021462;28;20537;-74
2021/05/08 10:53:42;;;;;;;6.45;2.70;;;23.10;82.10;;;;;;5019944;28;20049;-74
2021/05/08 10:56:27;;;;;;;;;;;23.50;83.20;;;;;;5001631;28;20477;-74
2021/05/08 11:00:48;;;;;;;50.17;10.38;;;24.10;83.10;;;;;;5128460;27;20358;-76
2021/05/08 11:03:17;;;;;;;5.65;2.08;;;24.00;83.00;;;;;;5091076;28;20533;-73
2021/05/08 11:05:53;;;;;;;5.75;1.50;;;24.00;83.00;;;;;;5091682;28;20422;-73
2021/05/08 11:08:43;;;;;;;3.70;1.60;;;24.20;81.70;;;;;;5075243;28;20036;-72
2021/05/08 11:11:12;;;;;;;5.22;1.92;;;24.40;81.90;;;;;;5097006;27;20135;-73
2021/05/08 11:14:01;;;;;;;5.88;1.80;;;24.60;80.80;;;;;;5075743;28;20047;-75
2021/05/08 11:16:31;;;;;;;11.18;2.50;;;24.80;81.00;;;;;;5053727;28;20052;-74
2021/05/08 11:18:59;;;;;;;5.80;3.08;;;24.90;79.60;;;;;;5073886;28;20044;-75
2021/05/08 11:21:41;;;;;;;5.15;1.58;;;25.20;79.90;;;;;;5079519;28;20604;-74
2021/05/08 11:24:10;;;;;;;3.67;1.88;;;25.10;78.00;;;;;;5078550;28;20060;-75
2021/05/08 11:26:45;;;;;;;5.82;2.20;;;25.10;79.90;;;;;;5089757;28;20509;-75
2021/05/08 11:29:20;;;;;;;6.80;1.80;;;25.30;80.00;;;;;;5061323;28;20139;-75
2021/05/08 11:31:49;;;;;;;5.53;1.40;;;25.60;79.90;;;;;;5075883;28;20142;-74
2021/05/08 11:34:19;;;;;;;6.57;2.10;;;25.30;80.60;;;;;;5060605;28;20037;-75
2021/05/08 11:36:52;;;;;;;5.03;1.73;;;25.20;81.10;;;;;;5078666;28;20052;-75
2021/05/08 11:39:21;;;;;;;6.43;1.80;;;25.00;81.20;;;;;;5082361;28;20121;-74
2021/05/08 11:43:38;;;;;;;6.17;1.50;;;24.70;80.50;;;;;;5117680;27;20720;-78
2021/05/08 11:46:06;;;;;;;6.10;1.60;;;24.70;80.60;;;;;;5117728;27;20500;-79
2021/05/08 11:48:33;;;;;;;3.78;1.35;;;24.70;80.30;;;;;;5120282;27;20083;-80
2021/05/08 11:51:01;;;;;;;6.43;1.52;;;24.40;80.50;;;;;;5116157;27;20039;-79
2021/05/08 11:53:28;;;;;;;7.15;1.70;;;24.30;81.00;;;;;;5115160;27;20043;-80
2021/05/08 11:55:55;;;;;;;5.75;1.80;;;24.40;81.30;;;;;;5113695;27;20036;-79
2021/05/08 11:58:27;;;;;;;5.78;1.67;;;24.40;81.10;;;;;;5120676;27;20480;-76
2021/05/08 12:00:55;;;;;;;6.70;1.80;;;24.30;80.90;;;;;;5116690;27;20051;-76
2021/05/08 12:03:24;;;;;;;7.68;1.60;;;24.30;81.10;;;;;;5098807;28;20046;-76
2021/05/08 12:05:52;;;;;;;5.20;1.60;;;24.30;80.70;;;;;;5111057;27;20148;-76
2021/05/08 12:08:22;;;;;;;5.82;1.45;;;24.10;82.20;;;;;;5097740;28;20121;-76
2021/05/08 12:10:51;;;;;;;3.47;1.70;;;23.90;82.40;;;;;;5098203;27;20044;-76
2021/05/08 12:13:28;;;;;;;4.90;1.38;;;23.80;82.20;;;;;;5118224;27;20044;-75
2021/05/08 12:16:01;;;;;;;5.43;1.63;;;24.10;81.90;;;;;;5117686;27;20462;-76
2021/05/08 12:18:32;;;;;;;6.53;1.35;;;24.70;81.50;;;;;;5116797;27;20051;-74
2021/05/08 12:21:03;;;;;;;4.30;1.75;;;25.00;79.00;;;;;;5116049;27;20598;-75
2021/05/08 12:23:31;;;;;;;3.88;1.10;;;25.30;78.40;;;;;;5114844;27;20044;-75
2021/05/08 12:26:14;;;;;;;5.30;1.55;;;25.40;76.70;;;;;;5116861;27;20035;-75
2021/05/08 12:28:54;;;;;;;4.85;1.40;;;25.60;77.60;;;;;;5116136;27;20076;-75
2021/05/08 12:31:26;;;;;;;3.80;1.25;;;25.80;79.30;;;;;;5100611;28;20135;-73
2021/05/08 12:33:55;;;;;;;4.80;1.42;;;26.00;77.90;;;;;;5114884;27;20304;-73
2021/05/08 12:36:25;;;;;;;2.65;1.10;;;26.20;76.50;;;;;;5113670;27;20413;-73
2021/05/08 12:38:54;;;;;;;4.43;1.80;;;26.00;76.30;;;;;;5115395;27;20048;-73
2021/05/08 12:41:27;;;;;;;2.85;1.38;;;25.80;78.60;;;;;;5117548;27;20561;-71
2021/05/08 12:44:06;;;;;;;2.40;1.20;;;25.60;77.30;;;;;;5114288;27;20050;-73
2021/05/08 12:46:56;;;;;;;3.08;1.20;;;25.70;76.70;;;;;;5114840;27;20043;-73
2021/05/08 12:49:26;;;;;;;3.35;1.58;;;26.00;77.60;;;;;;5112546;27;20039;-73
2021/05/08 12:51:54;;;;;;;4.20;1.20;;;26.20;76.60;;;;;;5113459;27;20122;-73
2021/05/08 12:54:28;;;;;;;6.18;1.60;;;26.10;75.70;;;;;;5102193;28;20554;-73
2021/05/08 12:57:09;;;;;;;4.53;1.35;;;26.00;75.60;;;;;;5100521;28;20035;-73
2021/05/08 12:59:38;;;;;;;4.80;1.70;;;25.90;75.90;;;;;;5096394;28;20062;-73
2021/05/08 13:02:19;;;;;;;4.78;1.50;;;25.90;75.80;;;;;;5101740;28;20447;-73
2021/05/08 13:04:48;;;;;;;5.72;1.48;;;26.10;75.60;;;;;;5102436;28;20044;-72
2021/05/08 13:07:30;;;;;;;7.10;1.83;;;26.20;74.90;;;;;;5101557;28;20134;-72
2021/05/08 13:10:21;;;;;;;6.03;1.30;;;25.90;75.00;;;;;;5093529;28;20040;-72
2021/05/08 13:12:51;;;;;;;4.70;1.30;;;25.90;74.80;;;;;;5099160;28;20036;-75